createdAt,value
2022-11-04T00:06:37.892Z,8.64
2022-11-04T00:16:15.118Z,8.82
2022-11-04T00:25:52.354Z,8.96
2022-11-04T00:35:29.626Z,9.11
2022-11-04T00:54:43.776Z,9.01
2022-11-04T01:04:20.733Z,8.83
2022-11-04T01:13:57.834Z,8.89
2022-11-04T01:23:35.074Z,8.8
2022-11-04T01:33:12.317Z,8.83
2022-11-04T01:42:49.050Z,9.04
2022-11-04T01:52:26.364Z,8.99
2022-11-04T02:02:03.697Z,8.99
2022-11-04T02:11:40.714Z,9.12
2022-11-04T02:21:17.540Z,9.21
2022-11-04T02:30:54.338Z,9.33
2022-11-04T02:40:31.537Z,9.37
2022-11-04T02:50:09.151Z,9.26
2022-11-04T02:59:45.935Z,9.19
2022-11-04T03:09:23.404Z,9.61
2022-11-04T03:19:00.479Z,9.64
2022-11-04T03:28:37.449Z,9.66
2022-11-04T03:38:14.847Z,9.77
2022-11-04T03:47:51.778Z,9.62
2022-11-04T03:57:28.762Z,9.74
2022-11-04T04:07:06.260Z,9.7
2022-11-04T04:16:45.534Z,9.91
2022-11-04T04:26:21.006Z,9.86
2022-11-04T04:35:58.318Z,9.64
2022-11-04T04:45:35.430Z,9.76
2022-11-04T04:55:12.255Z,9.58
2022-11-04T05:04:49.074Z,9.46
2022-11-04T05:14:26.132Z,9.32
2022-11-04T05:24:03.094Z,9.23
2022-11-04T05:33:40.123Z,9.18
2022-11-04T05:43:17.166Z,9.16
2022-11-04T05:52:54.388Z,9.13
2022-11-04T06:02:31.990Z,9.51
2022-11-04T06:12:09.138Z,9.34
2022-11-04T06:21:46.226Z,9.31
2022-11-04T06:31:23.408Z,9.31
2022-11-04T06:41:00.044Z,9.15
2022-11-04T06:50:36.727Z,9.12
2022-11-04T07:00:13.936Z,9.17
2022-11-04T07:09:51.379Z,9.24
2022-11-04T07:19:28.514Z,9.33
2022-11-04T07:29:05.948Z,9.39
2022-11-04T07:38:43.444Z,9.45
2022-11-04T07:48:20.668Z,9.47
2022-11-04T07:57:58.024Z,9.49
2022-11-04T08:07:35.346Z,9.53
2022-11-04T08:17:12.471Z,9.58
2022-11-04T08:26:49.531Z,9.57
2022-11-04T08:36:26.444Z,9.45
2022-11-04T08:46:03.953Z,9.78
2022-11-04T08:55:41.808Z,10.04
2022-11-04T09:05:18.918Z,10
2022-11-04T09:14:56.563Z,9.94
2022-11-04T09:24:33.211Z,9.87
2022-11-04T09:34:10.362Z,9.81
2022-11-04T09:43:47.250Z,9.87
2022-11-04T09:53:24.725Z,9.83
2022-11-04T10:03:01.418Z,9.92
2022-11-04T10:12:38.872Z,9.98
2022-11-04T10:22:15.802Z,10.03
2022-11-04T10:31:53.327Z,9.94
2022-11-04T10:41:30.109Z,9.96
2022-11-04T10:51:06.995Z,9.9
2022-11-04T11:00:44.295Z,10.05
2022-11-04T11:10:21.380Z,10.05
2022-11-04T11:19:58.406Z,10.15
2022-11-04T11:39:14.083Z,10.57
2022-11-04T11:48:55.823Z,11.21
2022-11-04T12:17:51.365Z,12.16
2022-11-04T12:27:29.533Z,12.26
2022-11-04T12:37:06.625Z,11.91
2022-11-04T12:46:44.204Z,11.7
2022-11-04T12:56:23.380Z,11.84
2022-11-04T13:05:57.318Z,11.85
2022-11-04T13:15:32.232Z,11.61
2022-11-04T13:25:08.454Z,11.55
2022-11-04T13:34:44.638Z,11.41
2022-11-04T13:44:21.711Z,11.39
2022-11-04T13:53:57.668Z,11.41
2022-11-04T14:03:34.745Z,11.21
2022-11-04T14:13:11.507Z,11.06
2022-11-04T14:22:48.514Z,11.04
2022-11-04T14:32:25.004Z,10.84
2022-11-04T14:42:01.761Z,10.55
2022-11-04T14:51:38.355Z,10.38
2022-11-04T15:01:14.635Z,10.3
2022-11-04T15:10:51.584Z,10.13
2022-11-04T15:20:28.114Z,9.85
2022-11-04T15:30:04.611Z,9.55
2022-11-04T15:39:41.224Z,9.32
2022-11-04T15:49:17.650Z,9.16
2022-11-04T15:58:54.341Z,8.97
2022-11-04T16:08:30.840Z,8.64
2022-11-04T16:18:07.224Z,8.31
2022-11-04T16:27:43.899Z,8.09
2022-11-04T16:37:20.655Z,7.82
2022-11-04T16:46:56.680Z,7.67
2022-11-04T16:56:33.709Z,7.67
2022-11-04T17:06:10.236Z,7.31
2022-11-04T17:15:46.787Z,7.38
2022-11-04T17:25:23.626Z,7.26
2022-11-04T17:34:59.968Z,7.03
2022-11-04T17:44:37.145Z,7
2022-11-04T17:54:14.084Z,6.98
2022-11-04T18:03:51.101Z,6.92
2022-11-04T18:13:28.195Z,6.9
2022-11-04T18:23:05.031Z,6.79
2022-11-04T18:42:18.647Z,6.67
2022-11-04T19:01:32.349Z,6.55
2022-11-04T19:11:08.579Z,6.47
2022-11-04T19:20:45.002Z,6.54
2022-11-04T19:30:24.253Z,6.61
2022-11-04T19:39:59.799Z,6.68
2022-11-04T19:49:36.679Z,6.69
2022-11-04T19:59:13.527Z,6.79
2022-11-04T20:08:50.350Z,6.8
2022-11-04T20:18:27.577Z,6.86
2022-11-04T20:37:41.589Z,6.77
2022-11-04T20:47:18.065Z,6.83
2022-11-04T20:56:54.877Z,6.84
2022-11-04T21:06:31.678Z,6.97
2022-11-04T21:16:08.501Z,6.85
2022-11-04T21:25:45.231Z,6.52
2022-11-04T21:35:21.781Z,6.54
2022-11-04T21:44:58.747Z,6.59
2022-11-04T21:54:37.960Z,6.63
2022-11-04T22:04:13.761Z,6.81
2022-11-04T22:13:50.794Z,6.83
2022-11-04T22:23:27.839Z,6.54
2022-11-04T22:33:04.410Z,6.38
2022-11-04T22:42:41.239Z,6.38
2022-11-04T22:52:17.715Z,6.26
2022-11-04T23:01:54.468Z,6.21
2022-11-04T23:11:31.145Z,6.27
2022-11-04T23:21:08.332Z,6.21
2022-11-04T23:30:45.189Z,5.98
2022-11-04T23:40:22.183Z,6.05
2022-11-04T23:49:58.947Z,5.94
2022-11-04T23:59:35.815Z,5.89
